createdAt,value
2018-08-09T00:00:34.793Z,0
2018-08-09T00:01:43.073Z,0
2018-08-09T00:02:51.130Z,0
2018-08-09T00:03:59.216Z,0
2018-08-09T00:05:07.264Z,0
2018-08-09T00:06:15.318Z,0
2018-08-09T00:07:23.406Z,0
2018-08-09T00:08:31.804Z,0
2018-08-09T00:09:39.580Z,0
2018-08-09T00:10:47.629Z,0
2018-08-09T00:11:55.659Z,0
2018-08-09T00:13:03.776Z,0
2018-08-09T00:14:11.994Z,0
2018-08-09T00:15:19.891Z,0
2018-08-09T00:16:28.241Z,0
2018-08-09T00:17:36.035Z,0
2018-08-09T00:18:44.106Z,0
2018-08-09T00:19:52.181Z,0
2018-08-09T00:21:00.537Z,0
2018-08-09T00:22:08.324Z,0
2018-08-09T00:23:16.415Z,0
2018-08-09T00:24:24.450Z,0
2018-08-09T00:25:32.712Z,0
2018-08-09T00:26:40.602Z,0
2018-08-09T00:27:48.700Z,0
2018-08-09T00:28:56.831Z,0
2018-08-09T00:30:04.825Z,0
2018-08-09T00:31:12.924Z,0
2018-08-09T00:32:21.219Z,0
2018-08-09T00:33:29.053Z,0
2018-08-09T00:34:37.120Z,0
2018-08-09T00:35:45.344Z,0
2018-08-09T00:36:56.061Z,0
2018-08-09T00:38:04.132Z,0
2018-08-09T00:39:12.220Z,0
2018-08-09T00:40:20.394Z,0
2018-08-09T00:41:28.350Z,0
2018-08-09T00:42:36.421Z,0
2018-08-09T00:43:44.507Z,0
2018-08-09T00:44:52.620Z,0
2018-08-09T00:46:00.631Z,0
2018-08-09T00:47:08.699Z,0
2018-08-09T00:48:16.771Z,0
2018-08-09T00:49:24.870Z,0
2018-08-09T00:50:32.956Z,0
2018-08-09T00:51:41.151Z,0
2018-08-09T00:52:49.071Z,0
2018-08-09T00:53:57.170Z,0
2018-08-09T00:55:05.200Z,0
2018-08-09T00:56:13.277Z,0
2018-08-09T00:57:21.354Z,0
2018-08-09T00:58:29.586Z,0
2018-08-09T00:59:37.476Z,0
2018-08-09T01:00:45.531Z,0
2018-08-09T01:01:53.631Z,0
2018-08-09T01:03:01.717Z,0
2018-08-09T01:04:09.870Z,0
2018-08-09T01:05:17.883Z,0
2018-08-09T01:06:25.895Z,0
2018-08-09T01:07:34.022Z,0
2018-08-09T01:08:42.071Z,0
2018-08-09T01:09:50.206Z,0
2018-08-09T01:10:58.206Z,0
2018-08-09T01:12:06.298Z,0
2018-08-09T01:13:14.619Z,0
2018-08-09T01:14:22.453Z,0
2018-08-09T01:15:30.497Z,0
2018-08-09T01:16:38.910Z,0
2018-08-09T01:17:46.634Z,0
2018-08-09T01:18:54.840Z,0
2018-08-09T01:20:07.683Z,0
2018-08-09T01:21:10.882Z,0
2018-08-09T01:22:18.925Z,0
2018-08-09T01:23:27.002Z,0
2018-08-09T01:24:35.090Z,0
2018-08-09T01:25:43.445Z,0
2018-08-09T01:26:51.468Z,0
2018-08-09T01:27:59.500Z,0
2018-08-09T01:29:07.598Z,0
2018-08-09T01:30:15.627Z,0
2018-08-09T01:31:23.742Z,0
2018-08-09T01:32:31.780Z,0
2018-08-09T01:33:39.873Z,0
2018-08-09T01:34:47.932Z,0
2018-08-09T01:35:55.988Z,0
2018-08-09T01:37:04.335Z,0
2018-08-09T01:38:12.160Z,0
2018-08-09T01:39:20.264Z,0
2018-08-09T01:40:28.292Z,0
2018-08-09T01:41:36.355Z,0
2018-08-09T01:42:44.440Z,0
2018-08-09T01:43:52.503Z,0
2018-08-09T01:45:00.579Z,0
2018-08-09T01:46:08.642Z,0
2018-08-09T01:47:16.709Z,0
2018-08-09T01:48:24.797Z,0
2018-08-09T01:49:32.859Z,0
2018-08-09T01:50:41.360Z,0
2018-08-09T01:51:48.992Z,0
2018-08-09T01:52:57.084Z,0
2018-08-09T01:54:05.140Z,0
2018-08-09T01:55:13.205Z,0
2018-08-09T01:56:21.294Z,0
2018-08-09T01:57:29.367Z,0
2018-08-09T01:58:37.426Z,0
2018-08-09T01:59:45.461Z,0
2018-08-09T02:00:53.549Z,0
2018-08-09T02:02:01.640Z,0
2018-08-09T02:03:09.889Z,0
2018-08-09T02:04:17.855Z,0
2018-08-09T02:05:26.028Z,0
2018-08-09T02:06:34.126Z,0
2018-08-09T02:07:42.201Z,0
2018-08-09T02:08:51.758Z,0
2018-08-09T02:09:58.534Z,0
2018-08-09T02:11:06.643Z,0
2018-08-09T02:12:14.678Z,0
2018-08-09T02:13:22.760Z,0
2018-08-09T02:14:30.828Z,0
2018-08-09T02:15:39.025Z,0
2018-08-09T02:16:47.055Z,0
2018-08-09T02:17:55.067Z,0
2018-08-09T02:19:03.109Z,0
2018-08-09T02:20:11.187Z,0
2018-08-09T02:21:19.256Z,0
2018-08-09T02:22:27.332Z,0
2018-08-09T02:23:35.479Z,0
2018-08-09T02:24:44.558Z,0
2018-08-09T02:25:51.530Z,0
2018-08-09T02:26:59.634Z,0
2018-08-09T02:28:07.677Z,0
2018-08-09T02:29:15.743Z,0
2018-08-09T02:30:23.814Z,0
2018-08-09T02:31:32.008Z,0
2018-08-09T02:32:40.044Z,0
2018-08-09T02:33:48.040Z,0
2018-08-09T02:34:56.094Z,0
2018-08-09T02:36:05.850Z,0
2018-08-09T02:37:12.254Z,0
2018-08-09T02:38:20.297Z,0
2018-08-09T02:39:28.394Z,0
2018-08-09T02:40:36.463Z,0
2018-08-09T02:41:44.529Z,0
2018-08-09T02:42:52.593Z,0
2018-08-09T02:44:00.672Z,0
2018-08-09T02:45:08.730Z,0
2018-08-09T02:46:16.802Z,0
2018-08-09T02:47:24.879Z,0
2018-08-09T02:48:32.951Z,0
2018-08-09T02:49:41.432Z,0
2018-08-09T02:50:49.087Z,0
2018-08-09T02:51:57.181Z,0
2018-08-09T02:53:05.488Z,0
2018-08-09T02:54:13.317Z,0
2018-08-09T02:55:21.368Z,0
2018-08-09T02:56:29.844Z,0
2018-08-09T02:57:37.529Z,0
2018-08-09T02:58:45.587Z,0
2018-08-09T02:59:53.659Z,0
2018-08-09T03:01:01.748Z,0
2018-08-09T03:02:09.804Z,0
2018-08-09T03:03:17.871Z,0
2018-08-09T03:04:26.100Z,0
2018-08-09T03:05:34.303Z,0
2018-08-09T03:06:42.251Z,0
2018-08-09T03:07:50.353Z,0
2018-08-09T03:08:58.423Z,0
2018-08-09T03:10:06.769Z,0
2018-08-09T03:11:14.553Z,0
2018-08-09T03:12:22.623Z,0
2018-08-09T03:13:30.687Z,0
2018-08-09T03:14:38.765Z,0
2018-08-09T03:15:47.019Z,0
2018-08-09T03:16:54.910Z,0
2018-08-09T03:18:06.340Z,0
2018-08-09T03:19:11.144Z,0
2018-08-09T03:20:19.136Z,0
2018-08-09T03:21:27.183Z,0
2018-08-09T03:22:35.267Z,0
2018-08-09T03:23:43.338Z,0
2018-08-09T03:24:51.420Z,0
2018-08-09T03:25:59.499Z,0
2018-08-09T03:27:07.567Z,0
2018-08-09T03:28:15.600Z,0
2018-08-09T03:29:23.683Z,0
2018-08-09T03:30:32.088Z,0
2018-08-09T03:31:39.937Z,0
2018-08-09T03:32:47.907Z,0
2018-08-09T03:33:55.940Z,0
2018-08-09T03:35:04.046Z,0
2018-08-09T03:36:12.119Z,0
2018-08-09T03:37:23.702Z,0
2018-08-09T03:38:28.269Z,0
2018-08-09T03:39:36.399Z,0
2018-08-09T03:40:44.397Z,0
2018-08-09T03:41:52.491Z,0
2018-08-09T03:43:00.553Z,0
2018-08-09T03:44:08.642Z,0
2018-08-09T03:45:16.680Z,0
2018-08-09T03:46:25.040Z,0
2018-08-09T03:47:32.819Z,0
2018-08-09T03:48:40.920Z,0
2018-08-09T03:49:49.035Z,0
2018-08-09T03:50:57.049Z,0
2018-08-09T03:52:05.291Z,0
2018-08-09T03:53:13.394Z,0
2018-08-09T03:54:21.640Z,0
2018-08-09T03:55:29.547Z,0
2018-08-09T03:56:38.627Z,0
2018-08-09T03:57:45.657Z,0
2018-08-09T03:58:53.724Z,0
2018-08-09T04:00:01.869Z,0
2018-08-09T04:01:10.064Z,0
2018-08-09T04:02:18.160Z,0
2018-08-09T04:03:26.206Z,0
2018-08-09T04:04:34.285Z,5
2018-08-09T04:05:43.689Z,5
2018-08-09T04:06:50.437Z,5
2018-08-09T04:07:58.499Z,5
2018-08-09T04:09:06.898Z,5
2018-08-09T04:10:14.648Z,5
2018-08-09T04:11:22.710Z,5
2018-08-09T04:12:31.361Z,10
2018-08-09T04:13:38.862Z,10
2018-08-09T04:14:47.235Z,10
2018-08-09T04:15:54.991Z,10
2018-08-09T04:17:03.051Z,10
2018-08-09T04:18:11.332Z,15
2018-08-09T04:19:19.380Z,15
2018-08-09T04:20:27.675Z,15
2018-08-09T04:21:37.125Z,15
2018-08-09T04:22:44.268Z,20
2018-08-09T04:23:51.947Z,20
2018-08-09T04:24:59.940Z,20
2018-08-09T04:26:07.992Z,25
2018-08-09T04:27:16.141Z,25
2018-08-09T04:28:24.128Z,25
2018-08-09T04:29:32.196Z,30
2018-08-09T04:30:41.727Z,30
2018-08-09T04:31:48.409Z,30
2018-08-09T04:32:56.390Z,35
2018-08-09T04:34:04.458Z,35
2018-08-09T04:35:13.475Z,40
2018-08-09T04:36:20.903Z,40
2018-08-09T04:37:28.887Z,40
2018-08-09T04:38:36.936Z,45
2018-08-09T04:39:45.016Z,45
2018-08-09T04:40:54.153Z,45
2018-08-09T04:42:01.247Z,50
2018-08-09T04:43:09.605Z,50
2018-08-09T04:44:17.296Z,55
2018-08-09T04:45:25.347Z,55
2018-08-09T04:46:33.435Z,55
2018-08-09T04:47:41.835Z,55
2018-08-09T04:48:49.552Z,60
2018-08-09T04:49:57.726Z,60
2018-08-09T04:51:05.665Z,60
2018-08-09T04:52:14.068Z,60
2018-08-09T04:53:21.830Z,60
2018-08-09T04:54:29.884Z,65
2018-08-09T04:55:37.975Z,70
2018-08-09T04:56:46.037Z,70
2018-08-09T04:57:54.110Z,75
2018-08-09T04:59:02.824Z,75
2018-08-09T05:00:10.445Z,75
2018-08-09T05:01:18.887Z,75
2018-08-09T05:02:26.599Z,75
2018-08-09T05:03:34.897Z,75
2018-08-09T05:04:42.711Z,75
2018-08-09T05:05:50.755Z,75
2018-08-09T05:07:00.879Z,75
2018-08-09T05:08:07.371Z,75
2018-08-09T05:09:14.983Z,75
2018-08-09T05:10:23.081Z,80
2018-08-09T05:11:31.124Z,80
2018-08-09T05:12:39.192Z,80
2018-08-09T05:13:49.928Z,85
2018-08-09T05:14:55.278Z,85
2018-08-09T05:16:04.076Z,85
2018-08-09T05:17:11.748Z,90
2018-08-09T05:18:19.793Z,95
2018-08-09T05:19:27.887Z,95
2018-08-09T05:20:35.845Z,100
2018-08-09T05:21:43.940Z,105
2018-08-09T05:22:52.008Z,110
2018-08-09T05:24:00.069Z,115
2018-08-09T05:25:08.798Z,115
2018-08-09T05:26:16.193Z,120
2018-08-09T05:27:24.270Z,125
2018-08-09T05:28:35.003Z,125
2018-08-09T05:29:40.419Z,125
2018-08-09T05:30:48.490Z,125
2018-08-09T05:31:56.707Z,125
2018-08-09T05:33:04.642Z,125
2018-08-09T05:34:12.814Z,130
2018-08-09T05:35:22.411Z,130
2018-08-09T05:36:28.903Z,130
2018-08-09T05:37:36.947Z,135
2018-08-09T05:38:44.997Z,135
2018-08-09T05:39:54.155Z,135
2018-08-09T05:41:01.136Z,140
2018-08-09T05:42:09.285Z,140
2018-08-09T05:43:17.293Z,140
2018-08-09T05:44:25.350Z,140
2018-08-09T05:45:33.427Z,145
2018-08-09T05:46:41.856Z,145
2018-08-09T05:47:49.584Z,145
2018-08-09T05:48:57.862Z,145
2018-08-09T05:50:05.897Z,145
2018-08-09T05:51:14.091Z,150
2018-08-09T05:52:22.065Z,155
2018-08-09T05:53:30.253Z,150
2018-08-09T05:54:38.210Z,150
2018-08-09T05:55:46.634Z,150
2018-08-09T05:56:54.447Z,155
2018-08-09T05:58:02.436Z,155
2018-08-09T05:59:10.876Z,160
2018-08-09T06:00:18.767Z,160
2018-08-09T06:01:28.419Z,165
2018-08-09T06:02:34.925Z,170
2018-08-09T06:03:44.563Z,170
2018-08-09T06:04:51.065Z,170
2018-08-09T06:06:00.599Z,175
2018-08-09T06:07:07.317Z,175
2018-08-09T06:08:15.417Z,180
2018-08-09T06:09:23.396Z,185
2018-08-09T06:10:31.820Z,190
2018-08-09T06:11:39.714Z,200
2018-08-09T06:12:47.805Z,205
2018-08-09T06:13:55.823Z,210
2018-08-09T06:15:03.949Z,210
2018-08-09T06:16:12.014Z,210
2018-08-09T06:17:20.080Z,195
2018-08-09T06:18:28.189Z,195
2018-08-09T06:19:36.210Z,200
2018-08-09T06:20:44.285Z,210
2018-08-09T06:21:52.463Z,225
2018-08-09T06:23:00.436Z,240
2018-08-09T06:24:08.514Z,250
2018-08-09T06:25:16.677Z,260
2018-08-09T06:26:24.718Z,255
2018-08-09T06:27:36.511Z,235
2018-08-09T06:28:41.021Z,230
2018-08-09T06:29:52.492Z,220
2018-08-09T06:30:57.165Z,225
2018-08-09T06:32:05.246Z,230
2018-08-09T06:33:13.324Z,260
2018-08-09T06:34:21.411Z,275
2018-08-09T06:35:29.464Z,275
2018-08-09T06:36:37.568Z,290
2018-08-09T06:37:45.591Z,325
2018-08-09T06:38:53.957Z,370
2018-08-09T06:40:02.164Z,405
2018-08-09T06:41:11.419Z,410
2018-08-09T06:42:20.312Z,415
2018-08-09T06:43:31.418Z,430
2018-08-09T06:44:38.069Z,440
2018-08-09T06:45:46.116Z,440
2018-08-09T06:46:54.583Z,435
2018-08-09T06:48:02.281Z,445
2018-08-09T06:49:11.939Z,425
2018-08-09T06:50:18.724Z,405
2018-08-09T06:51:26.687Z,390
2018-08-09T06:52:34.961Z,380
2018-08-09T06:53:42.684Z,360
2018-08-09T06:55:04.589Z,345
2018-08-09T06:56:04.097Z,340
2018-08-09T06:57:11.117Z,340
2018-08-09T06:58:19.226Z,345
2018-08-09T06:59:27.267Z,345
2018-08-09T07:00:35.739Z,340
2018-08-09T07:01:43.611Z,330
2018-08-09T07:02:52.780Z,315
2018-08-09T07:03:59.776Z,300
2018-08-09T07:05:07.838Z,270
2018-08-09T07:06:16.183Z,255
2018-08-09T07:07:23.999Z,240
2018-08-09T07:08:33.802Z,235
2018-08-09T07:09:40.141Z,255
2018-08-09T07:10:50.409Z,270
2018-08-09T07:11:56.275Z,270
2018-08-09T07:13:04.453Z,250
2018-08-09T07:14:12.460Z,275
2018-08-09T07:15:20.542Z,270
2018-08-09T07:16:28.640Z,270
2018-08-09T07:17:36.690Z,270
2018-08-09T07:18:44.733Z,270
2018-08-09T07:19:52.843Z,270
2018-08-09T07:21:00.888Z,275
2018-08-09T07:22:09.091Z,285
2018-08-09T07:23:17.056Z,310
2018-08-09T07:24:25.139Z,395
2018-08-09T07:25:33.199Z,420
2018-08-09T07:26:41.313Z,445
2018-08-09T07:27:49.346Z,450
2018-08-09T07:28:57.501Z,500
2018-08-09T07:30:05.672Z,605
2018-08-09T07:31:14.693Z,720
2018-08-09T07:32:22.473Z,810
2018-08-09T07:33:30.576Z,955
2018-08-09T07:34:38.980Z,800
2018-08-09T07:35:46.723Z,990
2018-08-09T07:36:54.775Z,1365
2018-08-09T07:38:02.875Z,1600
2018-08-09T07:39:14.305Z,1705
2018-08-09T07:40:19.016Z,1800
2018-08-09T07:41:27.628Z,1640
2018-08-09T07:42:35.151Z,1515
2018-08-09T07:43:43.264Z,1665
2018-08-09T07:44:51.386Z,1545
2018-08-09T07:45:59.382Z,1285
2018-08-09T07:47:07.482Z,1140
2018-08-09T07:48:15.519Z,1100
2018-08-09T07:49:27.379Z,1095
2018-08-09T07:50:32.343Z,1050
2018-08-09T07:51:40.489Z,1025
2018-08-09T07:52:48.485Z,1015
2018-08-09T07:53:59.185Z,1005
2018-08-09T07:55:17.988Z,980
2018-08-09T07:56:17.148Z,1000
2018-08-09T07:57:25.207Z,990
2018-08-09T07:58:33.396Z,1000
2018-08-09T07:59:41.433Z,1040
2018-08-09T08:00:49.538Z,1090
2018-08-09T08:01:57.593Z,1185
2018-08-09T08:03:07.075Z,1270
2018-08-09T08:04:26.166Z,1350
2018-08-09T08:05:23.460Z,1600
2018-08-09T08:06:31.496Z,1855
2018-08-09T08:07:39.671Z,1570
2018-08-09T08:08:47.674Z,1395
2018-08-09T08:09:55.730Z,1310
2018-08-09T08:11:03.944Z,1330
2018-08-09T08:12:11.952Z,1305
2018-08-09T08:13:23.063Z,1220
2018-08-09T08:14:28.127Z,1300
2018-08-09T08:15:36.167Z,1200
2018-08-09T08:16:44.357Z,1080
2018-08-09T08:17:53.571Z,1185
2018-08-09T08:19:01.636Z,1800
2018-08-09T08:20:09.793Z,1940
2018-08-09T08:21:17.829Z,1950
2018-08-09T08:22:25.967Z,1900
2018-08-09T08:23:33.990Z,2000
2018-08-09T08:24:42.082Z,2090
2018-08-09T08:25:50.159Z,2040
2018-08-09T08:27:01.566Z,1840
2018-08-09T08:28:06.338Z,1700
2018-08-09T08:29:14.619Z,2015
2018-08-09T08:30:22.710Z,2140
2018-08-09T08:31:30.794Z,2070
2018-08-09T08:32:38.887Z,2180
2018-08-09T08:33:46.965Z,2235
2018-08-09T08:34:55.083Z,2210
2018-08-09T08:36:03.411Z,2205
2018-08-09T08:37:11.245Z,2160
2018-08-09T08:38:20.314Z,2160
2018-08-09T08:39:27.417Z,2225
2018-08-09T08:40:35.465Z,2305
2018-08-09T08:41:43.700Z,2310
2018-08-09T08:42:51.667Z,2320
2018-08-09T08:43:59.754Z,2295
2018-08-09T08:45:07.848Z,2350
2018-08-09T08:46:16.963Z,2290
2018-08-09T08:47:24.006Z,2235
2018-08-09T08:48:32.517Z,2345
2018-08-09T08:49:40.171Z,2400
2018-08-09T08:50:48.270Z,2465
2018-08-09T08:51:56.566Z,2455
2018-08-09T08:53:04.715Z,2515
2018-08-09T08:54:12.844Z,2475
2018-08-09T08:55:20.904Z,2470
2018-08-09T08:56:28.901Z,2445
2018-08-09T08:57:37.043Z,2450
2018-08-09T08:58:45.113Z,2470
2018-08-09T08:59:53.235Z,2460
2018-08-09T09:01:04.751Z,2460
2018-08-09T09:02:09.366Z,2510
2018-08-09T09:03:20.861Z,2535
2018-08-09T09:04:25.719Z,2355
2018-08-09T09:05:33.657Z,2370
2018-08-09T09:06:41.717Z,2470
2018-08-09T09:07:49.826Z,2395
2018-08-09T09:08:57.908Z,1570
2018-08-09T09:10:06.222Z,415
2018-08-09T09:11:14.065Z,295
2018-08-09T09:12:22.509Z,270
2018-08-09T09:13:42.989Z,260
2018-08-09T09:14:38.300Z,250
2018-08-09T09:15:47.468Z,245
2018-08-09T09:16:54.472Z,245
2018-08-09T09:18:02.649Z,245
2018-08-09T09:19:10.697Z,245
2018-08-09T09:20:21.637Z,245
2018-08-09T09:21:29.762Z,245
2018-08-09T09:22:41.392Z,245
2018-08-09T09:23:53.677Z,245
2018-08-09T09:25:00.345Z,245
2018-08-09T09:26:08.452Z,240
2018-08-09T09:27:16.859Z,240
2018-08-09T09:28:24.635Z,240
2018-08-09T09:29:32.668Z,240
2018-08-09T09:30:41.562Z,235
2018-08-09T09:31:51.676Z,235
2018-08-09T09:33:00.202Z,235
2018-08-09T09:34:07.828Z,235
2018-08-09T09:35:15.897Z,235
2018-08-09T09:36:24.034Z,235
2018-08-09T09:37:32.074Z,235
2018-08-09T09:38:40.146Z,235
2018-08-09T09:39:48.246Z,230
2018-08-09T09:40:58.760Z,235
2018-08-09T09:42:04.392Z,225
2018-08-09T09:43:12.486Z,225
2018-08-09T09:44:20.821Z,225
2018-08-09T09:45:32.059Z,225
2018-08-09T09:46:36.718Z,225
2018-08-09T09:47:44.833Z,225
2018-08-09T09:48:53.913Z,220
2018-08-09T09:50:00.971Z,220
2018-08-09T09:51:09.040Z,220
2018-08-09T09:52:17.342Z,220
2018-08-09T09:53:25.374Z,220
2018-08-09T09:54:33.492Z,220
2018-08-09T09:55:41.556Z,220
2018-08-09T09:56:49.641Z,220
2018-08-09T09:57:57.772Z,220
2018-08-09T09:59:05.766Z,220
2018-08-09T10:00:13.875Z,220
2018-08-09T10:01:21.973Z,215
2018-08-09T10:02:30.131Z,215
2018-08-09T10:03:38.328Z,215
2018-08-09T10:04:46.399Z,215
2018-08-09T10:05:55.486Z,215
2018-08-09T10:07:02.599Z,215
2018-08-09T10:08:10.654Z,215
2018-08-09T10:09:18.753Z,215
2018-08-09T10:10:26.841Z,210
2018-08-09T10:11:34.908Z,210
2018-08-09T10:12:43.015Z,210
2018-08-09T10:13:51.066Z,210
2018-08-09T10:14:59.135Z,210
2018-08-09T10:16:07.436Z,210
2018-08-09T10:17:15.471Z,210
2018-08-09T10:18:23.606Z,210
2018-08-09T10:19:31.754Z,205
2018-08-09T10:20:39.741Z,205
2018-08-09T10:21:47.810Z,205
2018-08-09T10:22:55.861Z,205
2018-08-09T10:24:03.978Z,205
2018-08-09T10:25:12.052Z,205
2018-08-09T10:26:21.524Z,205
2018-08-09T10:27:28.463Z,205
2018-08-09T10:28:36.306Z,205
2018-08-09T10:29:44.637Z,205
2018-08-09T10:30:52.683Z,205
2018-08-09T10:32:00.753Z,205
2018-08-09T10:33:08.833Z,205
2018-08-09T10:34:16.938Z,205
2018-08-09T10:35:24.996Z,205
2018-08-09T10:36:33.039Z,205
2018-08-09T10:38:00.421Z,205
2018-08-09T10:38:49.367Z,205
2018-08-09T10:39:57.257Z,205
2018-08-09T10:41:05.429Z,205
2018-08-09T10:42:13.409Z,205
2018-08-09T10:43:23.492Z,205
2018-08-09T10:44:29.564Z,205
2018-08-09T10:45:37.636Z,205
2018-08-09T10:46:48.756Z,205
2018-08-09T10:47:53.792Z,210
2018-08-09T10:49:03.925Z,205
2018-08-09T10:50:12.940Z,210
2018-08-09T10:51:18.951Z,210
2018-08-09T10:52:26.917Z,210
2018-08-09T10:53:35.070Z,210
2018-08-09T10:54:43.090Z,210
2018-08-09T10:55:51.156Z,210
2018-08-09T10:56:59.245Z,210
2018-08-09T10:58:07.672Z,215
2018-08-09T10:59:15.373Z,210
2018-08-09T11:00:23.456Z,210
2018-08-09T11:01:31.538Z,215
2018-08-09T11:02:39.638Z,210
2018-08-09T11:03:47.693Z,210
2018-08-09T11:04:55.762Z,210
2018-08-09T11:06:04.057Z,210
2018-08-09T11:07:11.944Z,210
2018-08-09T11:08:20.022Z,205
2018-08-09T11:09:28.126Z,205
2018-08-09T11:10:36.262Z,205
2018-08-09T11:11:48.302Z,205
2018-08-09T11:12:56.385Z,210
2018-08-09T11:14:04.595Z,210
2018-08-09T11:15:12.555Z,210
2018-08-09T11:16:20.823Z,210
2018-08-09T11:17:28.916Z,210
2018-08-09T11:18:36.974Z,210
2018-08-09T11:19:45.084Z,210
2018-08-09T11:20:53.142Z,210
2018-08-09T11:22:01.269Z,210
2018-08-09T11:23:09.296Z,210
2018-08-09T11:24:17.400Z,210
2018-08-09T11:25:25.430Z,210
2018-08-09T11:26:33.562Z,205
2018-08-09T11:27:41.732Z,210
2018-08-09T11:28:49.732Z,205
2018-08-09T11:29:57.789Z,200
2018-08-09T11:31:05.852Z,205
2018-08-09T11:32:13.931Z,205
2018-08-09T11:33:22.042Z,210
2018-08-09T11:34:30.349Z,215
2018-08-09T11:35:39.277Z,220
2018-08-09T11:36:46.529Z,225
2018-08-09T11:37:54.361Z,220
2018-08-09T11:39:02.409Z,225
2018-08-09T11:40:10.559Z,225
2018-08-09T11:41:18.571Z,230
2018-08-09T11:42:26.823Z,235
2018-08-09T11:43:34.737Z,240
2018-08-09T11:44:42.831Z,240
2018-08-09T11:45:50.890Z,245
2018-08-09T11:46:59.007Z,245
2018-08-09T11:48:07.323Z,245
2018-08-09T11:49:15.146Z,245
2018-08-09T11:50:23.264Z,250
2018-08-09T11:51:31.310Z,250
2018-08-09T11:52:39.391Z,250
2018-08-09T11:53:47.459Z,250
2018-08-09T11:54:57.020Z,250
2018-08-09T11:56:03.647Z,250
2018-08-09T11:57:11.740Z,250
2018-08-09T11:58:19.813Z,245
2018-08-09T11:59:28.074Z,245
2018-08-09T12:00:35.939Z,240
2018-08-09T12:01:44.081Z,235
2018-08-09T12:02:52.113Z,230
2018-08-09T12:04:00.242Z,225
2018-08-09T12:05:08.293Z,220
2018-08-09T12:06:17.769Z,220
2018-08-09T12:07:24.479Z,215
2018-08-09T12:08:32.513Z,215
2018-08-09T12:09:40.971Z,220
2018-08-09T12:10:48.658Z,225
2018-08-09T12:11:56.948Z,225
2018-08-09T12:13:05.343Z,230
2018-08-09T12:14:13.104Z,240
2018-08-09T12:15:21.248Z,245
2018-08-09T12:16:29.241Z,255
2018-08-09T12:17:37.585Z,270
2018-08-09T12:18:45.442Z,275
2018-08-09T12:19:53.501Z,280
2018-08-09T12:21:04.127Z,280
2018-08-09T12:22:09.663Z,285
2018-08-09T12:23:17.756Z,290
2018-08-09T12:24:25.847Z,285
2018-08-09T12:25:35.372Z,280
2018-08-09T12:26:42.193Z,275
2018-08-09T12:27:50.268Z,280
2018-08-09T12:28:58.337Z,280
2018-08-09T12:30:06.427Z,285
2018-08-09T12:31:14.759Z,300
2018-08-09T12:32:22.590Z,310
2018-08-09T12:33:30.919Z,310
2018-08-09T12:34:38.760Z,310
2018-08-09T12:35:46.862Z,320
2018-08-09T12:36:54.909Z,330
2018-08-09T12:38:02.989Z,345
2018-08-09T12:39:11.330Z,345
2018-08-09T12:40:19.328Z,350
2018-08-09T12:41:27.432Z,380
2018-08-09T12:42:35.487Z,460
2018-08-09T12:43:43.589Z,515
2018-08-09T12:44:51.658Z,550
2018-08-09T12:45:59.744Z,540
2018-08-09T12:47:07.817Z,500
2018-08-09T12:48:16.068Z,480
2018-08-09T12:49:24.181Z,435
2018-08-09T12:50:32.262Z,380
2018-08-09T12:51:49.522Z,365
2018-08-09T12:52:53.254Z,420
2018-08-09T12:54:01.533Z,475
2018-08-09T12:55:09.707Z,465
2018-08-09T12:56:17.898Z,415
2018-08-09T12:57:25.943Z,375
2018-08-09T12:58:34.047Z,340
2018-08-09T12:59:42.465Z,320
2018-08-09T13:00:50.227Z,295
2018-08-09T13:01:58.282Z,285
2018-08-09T13:03:06.374Z,280
2018-08-09T13:04:15.877Z,280
2018-08-09T13:05:22.537Z,290
2018-08-09T13:06:30.632Z,295
2018-08-09T13:07:38.713Z,295
2018-08-09T13:08:46.802Z,290
2018-08-09T13:09:54.920Z,330
2018-08-09T13:11:03.118Z,340
2018-08-09T13:12:11.274Z,330
2018-08-09T13:13:19.371Z,345
2018-08-09T13:14:27.391Z,335
2018-08-09T13:15:35.631Z,315
2018-08-09T13:16:43.544Z,300
2018-08-09T13:17:51.680Z,290
2018-08-09T13:18:59.715Z,285
2018-08-09T13:20:07.772Z,275
2018-08-09T13:21:15.831Z,260
2018-08-09T13:22:24.970Z,255
2018-08-09T13:23:32.050Z,250
2018-08-09T13:24:40.153Z,250
2018-08-09T13:25:51.598Z,235
2018-08-09T13:26:56.257Z,230
2018-08-09T13:28:05.919Z,240
2018-08-09T13:29:12.420Z,240
2018-08-09T13:30:21.951Z,215
2018-08-09T13:31:28.580Z,205
2018-08-09T13:32:38.258Z,205
2018-08-09T13:33:44.791Z,205
2018-08-09T13:34:52.833Z,205
2018-08-09T13:36:01.007Z,210
2018-08-09T13:37:09.086Z,215
2018-08-09T13:38:17.088Z,220
2018-08-09T13:39:25.137Z,225
2018-08-09T13:40:33.229Z,225
2018-08-09T13:41:41.328Z,230
2018-08-09T13:42:49.379Z,240
2018-08-09T13:43:57.782Z,250
2018-08-09T13:45:05.529Z,240
2018-08-09T13:46:17.108Z,235
2018-08-09T13:47:21.704Z,235
2018-08-09T13:48:29.813Z,235
2018-08-09T13:49:37.916Z,235
2018-08-09T13:50:45.968Z,230
2018-08-09T13:51:54.224Z,225
2018-08-09T13:53:02.418Z,205
2018-08-09T13:54:10.426Z,230
2018-08-09T13:55:18.507Z,230
2018-08-09T13:56:26.549Z,250
2018-08-09T13:57:34.658Z,300
2018-08-09T13:58:42.907Z,340
2018-08-09T13:59:51.004Z,380
2018-08-09T14:01:02.506Z,390
2018-08-09T14:02:07.432Z,405
2018-08-09T14:03:15.212Z,375
2018-08-09T14:04:23.317Z,330
2018-08-09T14:05:32.873Z,330
2018-08-09T14:06:39.458Z,345
2018-08-09T14:07:47.580Z,355
2018-08-09T14:08:55.601Z,335
2018-08-09T14:10:03.720Z,320
2018-08-09T14:11:12.276Z,320
2018-08-09T14:12:19.910Z,320
2018-08-09T14:13:28.317Z,310
2018-08-09T14:14:36.037Z,290
2018-08-09T14:15:44.111Z,265
2018-08-09T14:16:52.480Z,245
2018-08-09T14:18:00.561Z,230
2018-08-09T14:19:08.350Z,225
2018-08-09T14:20:16.794Z,220
2018-08-09T14:21:24.606Z,215
2018-08-09T14:22:32.606Z,215
2018-08-09T14:23:40.674Z,215
2018-08-09T14:24:48.896Z,215
2018-08-09T14:25:56.849Z,215
2018-08-09T14:27:04.930Z,210
2018-08-09T14:28:12.996Z,205
2018-08-09T14:29:21.096Z,200
2018-08-09T14:30:29.426Z,195
2018-08-09T14:31:37.235Z,180
2018-08-09T14:32:45.944Z,170
2018-08-09T14:33:53.404Z,165
2018-08-09T14:35:02.128Z,175
2018-08-09T14:36:09.579Z,195
2018-08-09T14:37:17.678Z,205
2018-08-09T14:38:25.708Z,215
2018-08-09T14:39:33.794Z,230
2018-08-09T14:40:42.073Z,255
2018-08-09T14:41:50.157Z,275
2018-08-09T14:42:58.262Z,305
2018-08-09T14:44:06.522Z,325
2018-08-09T14:45:14.680Z,325
2018-08-09T14:46:22.708Z,330
2018-08-09T14:47:30.752Z,365
2018-08-09T14:48:38.859Z,400
2018-08-09T14:49:50.313Z,420
2018-08-09T14:50:54.989Z,430
2018-08-09T14:52:03.090Z,425
2018-08-09T14:53:11.133Z,405
2018-08-09T14:54:20.753Z,380
2018-08-09T14:55:27.310Z,360
2018-08-09T14:56:35.563Z,375
2018-08-09T14:57:43.672Z,375
2018-08-09T14:58:51.781Z,385
2018-08-09T14:59:59.837Z,385
2018-08-09T15:01:07.916Z,410
2018-08-09T15:02:15.964Z,430
2018-08-09T15:03:24.096Z,435
2018-08-09T15:04:32.147Z,425
2018-08-09T15:05:40.253Z,425
2018-08-09T15:06:48.305Z,355
2018-08-09T15:07:56.398Z,330
2018-08-09T15:09:04.468Z,300
2018-08-09T15:10:12.547Z,275
2018-08-09T15:11:20.670Z,285
2018-08-09T15:12:28.906Z,315
2018-08-09T15:13:36.985Z,330
2018-08-09T15:14:45.057Z,320
2018-08-09T15:15:54.596Z,290
2018-08-09T15:17:01.275Z,260
2018-08-09T15:18:09.335Z,250
2018-08-09T15:19:17.388Z,255
2018-08-09T15:20:25.465Z,245
2018-08-09T15:21:33.554Z,240
2018-08-09T15:22:41.739Z,250
2018-08-09T15:23:49.721Z,240
2018-08-09T15:24:57.797Z,215
2018-08-09T15:26:05.932Z,200
2018-08-09T15:27:13.961Z,205
2018-08-09T15:28:25.312Z,210
2018-08-09T15:29:37.351Z,220
2018-08-09T15:30:39.957Z,230
2018-08-09T15:31:47.250Z,255
2018-08-09T15:32:55.296Z,280
2018-08-09T15:34:03.410Z,320
2018-08-09T15:35:11.465Z,325
2018-08-09T15:36:19.609Z,320
2018-08-09T15:37:27.623Z,315
2018-08-09T15:38:35.700Z,315
2018-08-09T15:39:43.800Z,290
2018-08-09T15:40:51.871Z,265
2018-08-09T15:41:59.919Z,240
2018-08-09T15:43:08.017Z,210
2018-08-09T15:44:16.054Z,190
2018-08-09T15:45:24.279Z,170
2018-08-09T15:46:32.227Z,150
2018-08-09T15:47:40.420Z,125
2018-08-09T15:48:48.655Z,125
2018-08-09T15:49:56.755Z,150
2018-08-09T15:51:04.536Z,170
2018-08-09T15:52:14.862Z,170
2018-08-09T15:53:20.699Z,165
2018-08-09T15:54:28.770Z,165